Time;durP1;ratioP1;P1;durP2;ratioP2;P2;SDS_P1;SDS_P2;PMS_P1;PMS_P2;Temp;Humidity;BMP_temperature;BMP_pressure;BME280_temperature;BME280_humidity;BME280_pressure;Samples;Min_cycle;Max_cycle;Signal;HPM_P1;HPM_P2
2023/07/25 00:00:39;;;;;;;5.82;1.40;;;;;;;14.63;67.89;99551.41;4999192;28;20104;-48
2023/07/25 00:03:05;;;;;;;4.63;1.88;;;;;;;14.59;67.69;99555.00;5000220;28;20390;-50
2023/07/25 00:05:32;;;;;;;9.93;2.03;;;;;;;14.56;68.31;99554.25;4997048;28;20081;-50
2023/07/25 00:07:59;;;;;;;5.03;2.08;;;;;;;14.52;67.92;99553.47;5016336;28;20046;-50
2023/07/25 00:10:25;;;;;;;4.88;1.95;;;;;;;14.47;68.06;99550.13;5018482;28;20077;-51
2023/07/25 00:12:53;;;;;;;5.50;1.20;;;;;;;14.40;68.25;99541.63;5006237;28;20054;-49
2023/07/25 00:15:20;;;;;;;14.27;2.25;;;;;;;14.32;68.42;99547.03;5006474;28;20046;-48
2023/07/25 00:17:46;;;;;;;3.30;1.55;;;;;;;14.26;68.49;99548.06;5006721;28;20046;-49
2023/07/25 00:20:13;;;;;;;4.78;2.17;;;;;;;14.25;68.37;99550.69;5001873;28;20571;-48
2023/07/25 00:22:41;;;;;;;4.60;1.35;;;;;;;14.22;68.28;99550.78;5007992;28;20042;-48
2023/07/25 00:25:12;;;;;;;3.85;1.67;;;;;;;14.19;68.26;99545.66;5007826;28;20133;-51
2023/07/25 00:27:40;;;;;;;7.55;1.13;;;;;;;14.14;68.41;99544.03;5009340;28;20045;-51
2023/07/25 00:30:09;;;;;;;2.53;1.35;;;;;;;14.12;68.84;99540.59;5004496;28;20081;-48
2023/07/25 00:32:37;;;;;;;4.45;1.50;;;;;;;14.09;68.34;99537.22;5005453;28;20112;-48
2023/07/25 00:35:05;;;;;;;2.50;1.42;;;;;;;14.03;68.92;99546.06;5003985;28;20071;-49
2023/07/25 00:37:33;;;;;;;3.65;1.30;;;;;;;13.97;68.51;99536.66;5004067;28;20046;-48
2023/07/25 00:40:02;;;;;;;9.80;1.85;;;;;;;13.94;69.42;99541.06;5002693;28;20049;-52
2023/07/25 00:42:31;;;;;;;3.60;1.92;;;;;;;13.90;68.83;99536.81;5009728;28;20050;-50
2023/07/25 00:44:59;;;;;;;4.15;1.42;;;;;;;13.85;68.54;99542.16;5007087;28;20062;-48
2023/07/25 00:47:28;;;;;;;4.38;1.30;;;;;;;13.81;68.77;99546.56;5005906;28;20072;-50
2023/07/25 00:49:56;;;;;;;6.60;1.55;;;;;;;13.78;68.84;99546.63;5004684;28;20045;-48
2023/07/25 00:52:25;;;;;;;4.60;1.70;;;;;;;13.75;69.46;99547.56;5000869;28;20046;-50
2023/07/25 00:54:53;;;;;;;6.72;1.40;;;;;;;13.74;68.53;99550.22;4986485;28;20050;-47
2023/07/25 00:57:21;;;;;;;2.67;1.27;;;;;;;13.74;68.82;99545.88;4988408;28;20184;-49
2023/07/25 00:59:48;;;;;;;4.22;1.30;;;;;;;13.75;68.55;99541.53;4987571;28;20414;-50
2023/07/25 01:02:15;;;;;;;7.75;1.23;;;;;;;13.76;68.65;99545.84;4995764;28;20069;-47
2023/07/25 01:04:43;;;;;;;8.13;1.60;;;;;;;13.75;68.90;99536.31;5000389;28;23198;-48
2023/07/25 01:07:13;;;;;;;4.70;1.70;;;;;;;13.77;69.08;99544.94;5000007;28;20620;-50
2023/07/25 01:09:42;;;;;;;4.38;1.40;;;;;;;13.78;69.06;99546.63;5007769;28;20077;-50
2023/07/25 01:12:10;;;;;;;4.32;1.23;;;;;;;13.80;69.53;99534.47;5004344;28;20711;-45
2023/07/25 01:14:38;;;;;;;4.57;1.92;;;;;;;13.84;69.65;99541.28;5003773;28;20053;-52
2023/07/25 01:17:15;;;;;;;8.73;1.90;;;;;;;13.84;69.23;99541.28;5004372;28;20515;-53
2023/07/25 01:19:44;;;;;;;5.43;1.75;;;;;;;13.88;69.82;99540.31;5001716;28;20497;-51
2023/07/25 01:22:11;;;;;;;5.78;1.67;;;;;;;13.93;69.26;99539.34;5002028;28;20103;-45
2023/07/25 01:24:44;;;;;;;5.82;1.90;;;;;;;13.93;69.28;99532.41;5005852;28;20057;-47
2023/07/25 01:27:12;;;;;;;6.40;1.92;;;;;;;13.95;69.81;99537.59;5001074;28;20673;-50
2023/07/25 01:29:39;;;;;;;4.63;1.60;;;;;;;13.96;69.42;99540.16;5002479;28;20042;-48
2023/07/25 01:32:07;;;;;;;9.25;1.83;;;;;;;13.97;69.37;99540.97;4998484;28;20422;-47
2023/07/25 01:34:33;;;;;;;6.35;1.88;;;;;;;13.99;69.69;99536.59;5004754;28;20045;-47
2023/07/25 01:37:00;;;;;;;3.95;0.98;;;;;;;14.00;69.59;99533.09;5005213;28;20128;-52
2023/07/25 01:39:27;;;;;;;4.25;1.88;;;;;;;13.99;69.80;99537.44;5003785;28;20065;-51
2023/07/25 01:41:53;;;;;;;5.30;1.60;;;;;;;14.00;69.83;99541.78;5003443;28;20042;-50
2023/07/25 01:44:20;;;;;;;5.55;1.50;;;;;;;13.99;69.30;99537.44;5002945;28;20485;-53
2023/07/25 01:46:47;;;;;;;4.45;1.48;;;;;;;14.00;70.11;99533.09;5004652;28;20042;-48
2023/07/25 01:49:13;;;;;;;3.65;1.52;;;;;;;14.01;69.59;99530.47;5003560;28;20061;-50
2023/07/25 01:51:40;;;;;;;6.65;1.70;;;;;;;14.03;69.33;99535.63;4999615;28;20402;-53
2023/07/25 01:54:06;;;;;;;3.83;1.55;;;;;;;14.01;69.56;99532.19;5007990;28;20049;-51
2023/07/25 01:56:33;;;;;;;5.53;1.33;;;;;;;14.00;70.03;99527.91;5002694;28;20053;-51
2023/07/25 01:59:00;;;;;;;4.53;1.23;;;;;;;14.00;69.96;99535.72;5003534;28;20711;-50
2023/07/25 02:01:26;;;;;;;4.75;1.70;;;;;;;13.98;69.55;99540.09;5001446;28;20049;-52
2023/07/25 02:03:53;;;;;;;3.35;1.00;;;;;;;13.95;70.06;99537.59;5004717;28;20056;-51
2023/07/25 02:06:20;;;;;;;3.33;1.60;;;;;;;13.93;70.57;99534.16;5008880;28;20576;-51
2023/07/25 02:08:46;;;;;;;6.03;1.70;;;;;;;13.90;70.03;99536.81;5004540;28;20609;-53
2023/07/25 02:11:13;;;;;;;4.47;2.25;;;;;;;13.87;69.97;99530.81;5003519;28;20068;-51
2023/07/25 02:13:40;;;;;;;3.72;1.52;;;;;;;13.86;69.84;99531.72;5004643;28;20057;-50
2023/07/25 02:16:06;;;;;;;7.53;1.55;;;;;;;13.85;69.58;99535.19;5003346;28;20049;-53
2023/07/25 02:18:33;;;;;;;4.15;1.88;;;;;;;13.83;70.18;99534.38;5004580;28;20050;-52
2023/07/25 02:21:00;;;;;;;3.78;1.90;;;;;;;13.81;69.85;99546.56;5003706;28;20080;-49
2023/07/25 02:23:27;;;;;;;6.57;2.08;;;;;;;13.79;70.00;99543.16;5003715;28;20049;-53
2023/07/25 02:25:53;;;;;;;5.50;1.60;;;;;;;13.79;70.59;99542.31;5000274;28;20065;-48
2023/07/25 02:28:20;;;;;;;5.07;2.15;;;;;;;13.77;69.79;99537.13;5001716;28;20065;-52
2023/07/25 02:30:47;;;;;;;3.67;1.80;;;;;;;13.75;69.75;99531.13;5003478;28;20066;-49
2023/07/25 02:33:14;;;;;;;3.83;2.30;;;;;;;13.74;69.75;99534.59;5002743;28;20474;-50
2023/07/25 02:35:41;;;;;;;5.90;1.98;;;;;;;13.74;69.49;99539.78;4985753;28;20620;-49
2023/07/25 02:38:08;;;;;;;5.60;1.98;;;;;;;13.72;70.19;99534.63;4992705;28;20042;-49
2023/07/25 02:40:35;;;;;;;6.72;2.10;;;;;;;13.71;69.39;99529.50;4990696;28;20054;-51
2023/07/25 02:43:03;;;;;;;4.25;2.00;;;;;;;13.68;69.54;99529.56;4979266;28;20057;-51
2023/07/25 02:45:30;;;;;;;5.28;1.77;;;;;;;13.65;69.22;99529.63;4998695;28;20141;-51
2023/07/25 02:47:56;;;;;;;4.03;1.92;;;;;;;13.61;69.47;99529.69;5002529;28;20054;-47
2023/07/25 02:50:23;;;;;;;5.75;1.83;;;;;;;13.58;69.51;99528.91;4996939;28;20081;-50
2023/07/25 02:52:50;;;;;;;2.78;1.83;;;;;;;13.53;69.47;99531.63;5001330;28;20049;-50
2023/07/25 02:55:18;;;;;;;5.47;2.47;;;;;;;13.50;69.76;99531.69;5002257;28;20136;-49
2023/07/25 02:57:44;;;;;;;7.25;1.77;;;;;;;13.44;69.01;99532.66;4999746;28;20046;-49
2023/07/25 03:00:12;;;;;;;4.28;1.88;;;;;;;13.40;70.04;99532.78;5000149;28;20050;-52
2023/07/25 03:02:38;;;;;;;3.47;2.03;;;;;;;13.36;68.83;99525.03;4998844;28;20069;-51
2023/07/25 03:05:05;;;;;;;5.07;1.75;;;;;;;13.31;69.66;99529.47;4998150;28;20050;-51
2023/07/25 03:07:32;;;;;;;6.20;1.77;;;;;;;13.29;69.76;99533.88;5001334;28;20050;-51
2023/07/25 03:09:58;;;;;;;5.05;2.20;;;;;;;13.24;69.60;99530.50;4999654;28;20046;-49
2023/07/25 03:12:25;;;;;;;4.68;1.80;;;;;;;13.22;69.21;99532.28;4997668;28;20046;-50
2023/07/25 03:14:52;;;;;;;5.03;1.75;;;;;;;13.18;69.72;99535.84;4999859;28;20069;-50
2023/07/25 03:17:18;;;;;;;5.35;3.58;;;;;;;13.16;69.34;99532.41;4999322;28;20177;-47
2023/07/25 03:19:45;;;;;;;7.20;1.80;;;;;;;13.14;69.41;99534.19;4998533;28;20049;-51
2023/07/25 03:22:12;;;;;;;5.57;2.28;;;;;;;13.14;69.42;99539.41;4999728;28;20553;-50
2023/07/25 03:24:38;;;;;;;5.40;2.25;;;;;;;13.14;69.66;99540.22;5003178;28;20054;-47
2023/07/25 03:27:05;;;;;;;4.45;2.10;;;;;;;13.13;69.65;99548.09;5000142;28;20117;-53
2023/07/25 03:29:32;;;;;;;6.28;2.10;;;;;;;13.13;68.95;99537.69;5002431;28;20060;-50
2023/07/25 03:31:59;;;;;;;3.13;1.83;;;;;;;13.09;69.10;99542.97;4999768;28;20570;-51
2023/07/25 03:34:25;;;;;;;4.47;2.17;;;;;;;13.08;70.06;99549.03;5001719;28;20053;-45
2023/07/25 03:36:52;;;;;;;3.38;1.90;;;;;;;13.06;70.16;99536.94;4995090;28;20112;-52
2023/07/25 03:39:19;;;;;;;3.33;1.70;;;;;;;13.04;69.50;99536.97;5001296;28;20053;-48
2023/07/25 03:41:46;;;;;;;5.50;1.83;;;;;;;13.00;70.04;99532.72;5002875;28;20042;-51
2023/07/25 03:44:17;;;;;;;4.43;1.73;;;;;;;12.98;69.28;99542.31;4999004;28;20049;-50
2023/07/25 03:46:44;;;;;;;5.00;1.77;;;;;;;12.93;69.98;99536.34;5000981;28;20097;-48
2023/07/25 03:49:12;;;;;;;6.57;2.17;;;;;;;12.91;69.65;99544.19;5006195;28;20158;-51
2023/07/25 03:51:38;;;;;;;5.47;2.00;;;;;;;12.89;69.48;99545.09;5003079;28;20101;-50
2023/07/25 03:54:06;;;;;;;3.42;2.00;;;;;;;12.87;70.42;99537.31;5003746;28;20060;-53
2023/07/25 03:56:33;;;;;;;4.15;2.15;;;;;;;12.84;70.67;99535.66;5003039;28;20065;-50
2023/07/25 03:59:00;;;;;;;5.95;2.67;;;;;;;12.82;69.12;99529.66;5002210;28;20045;-46
2023/07/25 04:01:27;;;;;;;6.88;2.17;;;;;;;12.79;69.68;99540.09;4999974;28;20054;-50
2023/07/25 04:03:54;;;;;;;6.70;2.08;;;;;;;12.77;69.75;99536.66;5006815;28;20391;-46
2023/07/25 04:06:21;;;;;;;3.78;2.10;;;;;;;12.73;70.25;99529.81;5003998;28;20077;-49
2023/07/25 04:08:47;;;;;;;5.22;2.50;;;;;;;12.72;70.35;99539.38;5004033;28;20405;-50
2023/07/25 04:11:14;;;;;;;5.55;1.90;;;;;;;12.69;69.46;99542.03;5002462;28;20060;-52
2023/07/25 04:13:41;;;;;;;3.67;2.00;;;;;;;12.67;69.72;99541.19;5005057;28;20050;-47
2023/07/25 04:16:08;;;;;;;4.00;1.90;;;;;;;12.63;70.49;99538.69;4998654;28;20050;-49
2023/07/25 04:18:35;;;;;;;3.40;1.92;;;;;;;12.58;70.21;99537.03;5003744;28;20053;-49
2023/07/25 04:21:01;;;;;;;3.45;1.83;;;;;;;12.52;69.63;99531.97;5003746;28;20034;-48
2023/07/25 04:23:28;;;;;;;5.47;2.00;;;;;;;12.48;69.53;99545.88;5001770;28;20053;-49
2023/07/25 04:25:54;;;;;;;4.53;1.73;;;;;;;12.44;69.49;99541.63;5004323;28;20085;-54
2023/07/25 04:28:21;;;;;;;6.30;2.20;;;;;;;12.40;69.68;99547.78;5002029;28;20057;-50
2023/07/25 04:30:48;;;;;;;4.85;1.88;;;;;;;12.38;69.99;99544.34;5001796;28;20052;-48
2023/07/25 04:33:14;;;;;;;5.75;2.13;;;;;;;12.34;69.92;99548.75;5002345;28;20057;-50
2023/07/25 04:35:45;;;;;;;4.80;2.53;;;;;;;12.31;70.48;99541.88;5007097;28;20077;-53
2023/07/25 04:38:15;;;;;;;7.47;2.30;;;;;;;12.26;70.05;99538.47;5004823;28;20050;-52
2023/07/25 04:40:43;;;;;;;6.72;2.05;;;;;;;12.24;69.83;99542.84;5006917;28;20080;-46
2023/07/25 04:43:10;;;;;;;3.60;2.10;;;;;;;12.20;70.60;99544.63;5004183;28;20056;-49
2023/07/25 04:45:37;;;;;;;4.68;2.17;;;;;;;12.19;70.62;99549.84;5005429;28;20042;-50
2023/07/25 04:48:05;;;;;;;14.40;2.53;;;;;;;12.16;70.66;99539.53;5006031;28;20046;-51
2023/07/25 04:50:32;;;;;;;6.75;2.95;;;;;;;12.13;69.96;99544.78;5036846;28;20045;-48
2023/07/25 04:52:58;;;;;;;6.80;2.60;;;;;;;12.12;69.88;99550.88;5005771;28;20061;-53
2023/07/25 04:55:25;;;;;;;7.63;2.63;;;;;;;12.12;69.75;99554.31;5007091;28;20052;-52
2023/07/25 04:57:52;;;;;;;4.93;2.20;;;;;;;12.13;69.70;99555.16;5004036;28;20042;-49
2023/07/25 05:00:18;;;;;;;6.40;2.47;;;;;;;12.12;70.93;99558.66;5003599;28;20133;-49
2023/07/25 05:02:45;;;;;;;6.97;3.00;;;;;;;12.13;71.10;99560.38;5005430;28;20386;-50
2023/07/25 05:05:12;;;;;;;5.97;2.38;;;;;;;12.16;69.93;99560.31;5005049;28;20057;-47
2023/07/25 05:07:38;;;;;;;9.57;2.85;;;;;;;12.19;70.20;99562.84;4996643;28;20762;-50
2023/07/25 05:10:06;;;;;;;5.75;2.63;;;;;;;12.22;70.49;99560.19;5001963;28;20048;-51
2023/07/25 05:12:32;;;;;;;4.95;2.65;;;;;;;12.28;70.52;99554.91;5008219;28;20053;-48
2023/07/25 05:14:59;;;;;;;6.10;2.92;;;;;;;12.36;70.49;99559.09;5001446;28;20046;-48
2023/07/25 05:17:26;;;;;;;9.85;3.35;;;;;;;12.43;70.99;99563.31;5004730;28;20049;-49
2023/07/25 05:19:52;;;;;;;5.75;2.30;;;;;;;12.48;71.10;99566.66;5005060;28;20053;-51
2023/07/25 05:22:19;;;;;;;4.35;2.13;;;;;;;12.53;70.96;99564.84;5001170;28;20039;-47
2023/07/25 05:24:45;;;;;;;10.80;2.53;;;;;;;12.57;70.57;99570.84;4982253;28;20158;-50
2023/07/25 05:27:12;;;;;;;8.60;2.47;;;;;;;12.60;71.97;99571.63;4982029;28;20042;-46
2023/07/25 05:29:39;;;;;;;6.97;2.35;;;;;;;12.66;71.35;99575.84;4980488;28;20055;-51
2023/07/25 05:32:06;;;;;;;6.22;2.60;;;;;;;12.72;71.18;99574.88;4983772;28;20046;-50
2023/07/25 05:34:33;;;;;;;7.05;2.38;;;;;;;12.78;71.58;99574.78;4987141;28;20072;-50
2023/07/25 05:37:00;;;;;;;7.72;2.08;;;;;;;12.85;71.59;99575.50;4989199;28;20050;-48
2023/07/25 05:39:26;;;;;;;4.90;2.10;;;;;;;12.91;72.28;99583.19;5000167;28;20057;-52
2023/07/25 05:41:53;;;;;;;5.28;2.08;;;;;;;12.96;71.44;99580.47;5003607;28;20042;-49
2023/07/25 05:44:20;;;;;;;6.00;2.60;;;;;;;13.04;71.50;99570.78;4999375;28;20394;-49
2023/07/25 05:46:46;;;;;;;4.13;1.67;;;;;;;13.13;71.74;99574.09;5002693;28;20050;-48
2023/07/25 05:49:13;;;;;;;4.78;2.30;;;;;;;13.22;72.14;99574.75;4998318;28;20053;-51
2023/07/25 05:51:39;;;;;;;4.22;2.20;;;;;;;13.32;71.65;99575.41;5005372;28;20041;-46
2023/07/25 05:54:06;;;;;;;4.10;2.10;;;;;;;13.46;71.91;99576.84;4977688;28;20054;-47
2023/07/25 05:56:32;;;;;;;6.50;2.55;;;;;;;13.60;71.84;99573.97;4983162;28;20061;-49
2023/07/25 05:58:59;;;;;;;6.85;2.17;;;;;;;13.74;72.37;99573.63;4980609;28;20149;-50
2023/07/25 06:01:26;;;;;;;4.10;1.63;;;;;;;13.91;71.41;99577.59;4982363;28;20047;-52
2023/07/25 06:03:52;;;;;;;3.08;1.60;;;;;;;14.06;71.52;99579.84;4978175;28;20066;-52
2023/07/25 06:06:19;;;;;;;5.28;2.00;;;;;;;14.24;71.73;99575.03;4982859;28;20054;-52
2023/07/25 06:08:46;;;;;;;3.95;1.73;;;;;;;14.39;71.78;99579.84;4979765;28;20058;-49
2023/07/25 06:11:12;;;;;;;6.93;1.90;;;;;;;14.53;71.19;99586.47;4983444;28;20717;-48
2023/07/25 06:13:39;;;;;;;4.55;1.75;;;;;;;14.64;71.42;99588.78;4977171;28;20515;-47
2023/07/25 06:16:06;;;;;;;5.70;1.70;;;;;;;14.72;71.15;99585.94;4983928;28;20109;-52
2023/07/25 06:18:32;;;;;;;2.72;1.17;;;;;;;14.84;70.44;99590.00;4982269;28;20054;-52
2023/07/25 06:20:59;;;;;;;5.10;1.63;;;;;;;15.00;70.75;99596.50;4983157;28;20141;-50
2023/07/25 06:23:25;;;;;;;3.72;1.25;;;;;;;15.16;70.42;99596.91;4980602;28;20142;-51
2023/07/25 06:25:52;;;;;;;5.03;1.67;;;;;;;15.28;69.80;99594.84;4988854;28;20053;-53
2023/07/25 06:28:19;;;;;;;4.00;1.98;;;;;;;15.41;69.83;99601.41;4999847;28;20049;-53
2023/07/25 06:30:45;;;;;;;3.55;1.13;;;;;;;15.54;69.08;99603.66;4999792;28;20046;-52
2023/07/25 06:33:15;;;;;;;3.78;1.75;;;;;;;15.64;69.56;99596.41;5001270;28;20051;-53
2023/07/25 06:35:41;;;;;;;5.47;1.60;;;;;;;15.79;69.26;99597.66;5006777;28;20056;-53
2023/07/25 06:38:08;;;;;;;5.18;2.03;;;;;;;15.99;68.79;99602.28;4995629;28;20113;-50
2023/07/25 06:40:34;;;;;;;3.33;1.73;;;;;;;16.16;68.41;99604.34;4997585;28;20045;-51
2023/07/25 06:43:01;;;;;;;4.20;1.13;;;;;;;16.27;68.21;99597.88;4997706;28;20050;-48
2023/07/25 06:45:28;;;;;;;3.67;1.75;;;;;;;16.40;68.24;99593.97;4997705;28;20042;-52
2023/07/25 06:47:55;;;;;;;6.53;1.55;;;;;;;16.56;67.37;99601.28;4997256;28;20130;-49
2023/07/25 06:50:21;;;;;;;3.70;1.23;;;;;;;16.75;67.42;99605.88;5002436;28;20073;-50
2023/07/25 06:52:48;;;;;;;2.58;1.55;;;;;;;16.87;66.57;99605.41;4994484;28;20504;-51
2023/07/25 06:55:18;;;;;;;3.63;1.60;;;;;;;16.96;65.75;99605.06;4991620;28;20057;-49
2023/07/25 06:57:45;;;;;;;2.55;1.48;;;;;;;17.11;66.44;99607.22;4994495;28;20519;-48
2023/07/25 07:00:12;;;;;;;3.17;1.30;;;;;;;17.29;65.77;99609.16;4999184;28;20042;-52
2023/07/25 07:02:41;;;;;;;5.30;1.58;;;;;;;17.44;65.28;99599.88;5006994;28;20049;-51
2023/07/25 07:05:08;;;;;;;4.35;1.73;;;;;;;17.57;65.00;99604.63;4986359;28;20042;-50
2023/07/25 07:07:54;;;;;;;3.03;1.17;;;;;;;17.64;64.02;99595.63;5004867;28;20181;-49
2023/07/25 07:10:21;;;;;;;6.35;1.52;;;;;;;17.67;63.88;99605.13;4997335;28;20112;-48
2023/07/25 07:12:48;;;;;;;3.85;1.42;;;;;;;17.72;63.70;99608.41;4985169;28;20073;-49
2023/07/25 07:15:15;;;;;;;3.67;1.55;;;;;;;17.78;63.57;99612.53;5000004;28;20085;-53
2023/07/25 07:17:42;;;;;;;4.03;1.10;;;;;;;17.83;63.65;99605.34;5001916;28;20070;-54
2023/07/25 07:20:09;;;;;;;2.22;1.10;;;;;;;17.87;63.76;99609.56;4987344;28;20047;-49
2023/07/25 07:22:36;;;;;;;4.72;0.98;;;;;;;17.87;63.84;99604.34;4984297;28;20106;-52
2023/07/25 07:25:03;;;;;;;3.38;1.23;;;;;;;17.91;62.62;99602.41;4983419;28;20057;-50
2023/07/25 07:27:30;;;;;;;2.03;1.02;;;;;;;17.89;62.54;99607.72;4982716;28;20145;-51
2023/07/25 07:29:57;;;;;;;3.50;1.10;;;;;;;17.88;62.64;99608.66;4983418;28;20053;-51
2023/07/25 07:32:25;;;;;;;2.47;0.70;;;;;;;17.89;62.44;99605.09;4987709;28;20054;-52
2023/07/25 07:34:52;;;;;;;2.33;1.20;;;;;;;17.92;62.08;99609.38;4985606;28;20050;-51
2023/07/25 07:37:19;;;;;;;2.85;1.05;;;;;;;18.03;62.49;99606.31;4981888;28;20046;-49
2023/07/25 07:39:45;;;;;;;1.77;1.00;;;;;;;18.16;62.04;99610.16;4977867;28;20774;-50
2023/07/25 07:42:12;;;;;;;3.20;1.45;;;;;;;18.28;62.34;99610.56;4976396;28;20038;-51
2023/07/25 07:44:39;;;;;;;2.75;1.05;;;;;;;18.40;62.16;99603.97;4982895;28;20058;-50
2023/07/25 07:47:06;;;;;;;3.13;0.90;;;;;;;18.49;61.94;99609.66;4994393;28;20054;-52
2023/07/25 07:49:34;;;;;;;2.47;0.90;;;;;;;18.58;61.18;99613.66;4998557;28;20053;-49
2023/07/25 07:52:01;;;;;;;2.92;1.10;;;;;;;18.60;61.29;99614.44;4994287;28;20176;-48
2023/07/25 07:54:32;;;;;;;2.40;0.95;;;;;;;18.60;60.92;99617.06;5004640;28;20062;-51
2023/07/25 07:56:59;;;;;;;4.05;0.93;;;;;;;18.63;61.14;99616.06;5000692;28;20061;-50
2023/07/25 07:59:26;;;;;;;2.75;0.75;;;;;;;18.72;61.06;99615.69;5002773;28;20425;-50
2023/07/25 08:01:52;;;;;;;1.88;0.60;;;;;;;18.84;61.04;99609.03;4998583;28;20533;-49
2023/07/25 08:04:19;;;;;;;2.00;0.80;;;;;;;18.99;60.21;99611.91;5000494;28;20066;-49
2023/07/25 08:06:46;;;;;;;1.80;0.82;;;;;;;19.31;60.28;99621.88;5002425;28;20058;-50
2023/07/25 08:09:13;;;;;;;2.83;0.60;;;;;;;19.55;59.36;99613.78;5000391;28;20046;-48
2023/07/25 08:11:40;;;;;;;0.98;0.35;;;;;;;19.64;59.44;99615.97;4996902;28;20081;-47
2023/07/25 08:14:07;;;;;;;3.95;0.70;;;;;;;19.70;58.76;99618.31;5000015;28;20109;-52
2023/07/25 08:16:34;;;;;;;1.05;0.45;;;;;;;19.77;58.00;99624.13;4999723;28;20066;-53
2023/07/25 08:19:00;;;;;;;2.28;0.82;;;;;;;19.87;58.27;99624.53;4997324;28;20053;-49
2023/07/25 08:21:27;;;;;;;1.65;0.50;;;;;;;20.00;56.90;99615.13;4999914;28;20050;-54
2023/07/25 08:23:54;;;;;;;2.58;2.38;;;;;;;19.93;56.32;99624.25;4998772;28;20440;-50
2023/07/25 08:26:21;;;;;;;1.52;0.50;;;;;;;20.12;57.06;99624.22;5000382;28;20050;-51
2023/07/25 08:28:47;;;;;;;1.52;0.73;;;;;;;20.46;56.90;99619.03;4997783;28;20042;-53
2023/07/25 08:31:14;;;;;;;2.05;0.55;;;;;;;20.80;55.94;99624.31;4999758;28;20061;-50
2023/07/25 08:33:44;;;;;;;2.75;0.50;;;;;;;20.91;55.99;99626.44;4995793;28;20049;-49
2023/07/25 08:36:11;;;;;;;1.90;1.77;;;;;;;20.87;55.72;99636.22;4999618;28;20508;-52
2023/07/25 08:38:41;;;;;;;1.58;0.90;;;;;;;20.83;55.25;99621.53;4999027;28;20049;-52
2023/07/25 08:41:16;;;;;;;0.88;0.63;;;;;;;20.77;55.10;99620.06;4999494;28;20049;-54
2023/07/25 08:43:44;;;;;;;1.50;0.55;;;;;;;20.83;54.93;99628.59;5002119;28;20053;-50
2023/07/25 08:46:13;;;;;;;1.77;0.70;;;;;;;21.02;54.71;99629.34;5003604;28;20125;-53
2023/07/25 08:48:43;;;;;;;1.40;0.80;;;;;;;21.31;54.04;99623.44;4999305;28;20045;-54
2023/07/25 08:51:19;;;;;;;1.13;0.70;;;;;;;21.54;54.07;99619.53;4998618;28;20523;-53
2023/07/25 08:53:55;;;;;;;1.40;0.82;;;;;;;21.61;53.00;99627.09;4997170;28;20046;-53
2023/07/25 08:56:23;;;;;;;4.13;1.25;;;;;;;21.55;53.07;99631.75;4997753;28;20693;-51
2023/07/25 08:58:50;;;;;;;3.42;1.63;;;;;;;21.58;53.17;99626.34;4996459;28;20061;-51
2023/07/25 09:01:19;;;;;;;1.88;0.60;;;;;;;21.55;52.49;99626.50;4997660;28;20673;-52
2023/07/25 09:03:47;;;;;;;2.08;0.90;;;;;;;21.40;52.89;99632.63;4994802;28;20064;-51
2023/07/25 09:06:14;;;;;;;5.95;0.98;;;;;;;21.23;52.31;99631.75;4998077;28;20050;-53
2023/07/25 09:08:41;;;;;;;3.10;0.95;;;;;;;21.14;53.18;99632.25;4999148;28;20525;-53
2023/07/25 09:11:09;;;;;;;2.60;0.90;;;;;;;21.36;53.15;99631.94;4988644;28;20049;-50
2023/07/25 09:13:37;;;;;;;2.00;0.80;;;;;;;21.43;53.13;99620.13;4980145;28;20414;-51
2023/07/25 09:16:04;;;;;;;4.88;0.82;;;;;;;21.36;51.97;99631.06;4997195;28;20057;-52
2023/07/25 09:18:31;;;;;;;1.20;0.73;;;;;;;21.32;52.12;99631.25;4996254;28;20053;-51
2023/07/25 09:20:58;;;;;;;2.10;1.10;;;;;;;21.44;52.32;99621.84;4998592;28;20084;-54
2023/07/25 09:23:25;;;;;;;2.25;0.70;;;;;;;21.44;51.29;99639.41;4995846;28;20054;-52
2023/07/25 09:26:03;;;;;;;3.20;0.85;;;;;;;21.27;51.76;99624.53;5001694;28;20521;-48
2023/07/25 09:28:31;;;;;;;1.88;0.80;;;;;;;21.21;51.40;99623.06;4996424;28;20046;-51
2023/07/25 09:31:06;;;;;;;1.05;0.60;;;;;;;21.16;52.21;99625.13;5003869;28;20069;-51
2023/07/25 09:33:33;;;;;;;1.67;0.70;;;;;;;21.27;52.11;99627.16;5001766;28;20508;-54
2023/07/25 09:36:02;;;;;;;2.90;0.85;;;;;;;21.48;51.97;99621.66;5007541;28;20104;-53
2023/07/25 09:38:29;;;;;;;2.58;1.00;;;;;;;21.72;51.57;99622.09;5000061;28;20054;-52
2023/07/25 09:40:55;;;;;;;1.77;0.75;;;;;;;21.76;51.82;99626.28;5000647;28;20038;-49
2023/07/25 09:43:25;;;;;;;1.20;0.60;;;;;;;21.81;51.36;99634.75;5001989;28;20132;-53
2023/07/25 09:45:52;;;;;;;1.77;0.98;;;;;;;21.95;50.95;99622.56;5001676;28;20537;-53
2023/07/25 09:48:19;;;;;;;1.13;0.90;;;;;;;22.23;50.79;99628.03;5002811;28;20056;-51
2023/07/25 09:50:46;;;;;;;2.65;0.80;;;;;;;22.47;50.86;99623.13;5004246;28;20417;-50
2023/07/25 09:53:16;;;;;;;3.33;0.98;;;;;;;22.66;49.29;99622.06;5001479;28;20050;-52
2023/07/25 09:55:44;;;;;;;;;;;;;;;22.81;50.22;99621.13;5001003;28;20046;-50
2023/07/25 09:58:11;;;;;;;16.42;2.22;;;;;;;22.85;49.72;99630.56;5005552;28;19921;-52
2023/07/25 10:00:40;;;;;;;41.72;3.80;;;;;;;22.97;48.96;99625.47;4997929;28;20057;-51
2023/07/25 10:03:09;;;;;;;5.93;0.93;;;;;;;23.20;49.29;99621.38;4984565;28;20125;-52
2023/07/25 10:05:43;;;;;;;22.95;2.67;;;;;;;23.45;48.86;99630.44;5012263;28;20509;-52
2023/07/25 10:08:12;;;;;;;31.10;3.08;;;;;;;23.69;49.40;99628.94;4980254;28;20509;-52
2023/07/25 10:10:40;;;;;;;5.50;1.23;;;;;;;23.78;47.83;99625.72;4985625;28;20053;-54
2023/07/25 10:13:08;;;;;;;2.90;1.40;;;;;;;23.72;47.88;99623.47;4995593;28;20061;-54
2023/07/25 10:15:36;;;;;;;7.63;1.30;;;;;;;23.80;48.37;99618.53;4997092;28;20065;-52
2023/07/25 10:18:04;;;;;;;1.80;0.73;;;;;;;23.95;46.87;99619.31;5001540;28;20050;-52
2023/07/25 10:20:31;;;;;;;0.93;0.75;;;;;;;24.00;46.51;99622.50;4997549;28;20046;-48
2023/07/25 10:23:09;;;;;;;1.92;0.80;;;;;;;23.77;45.08;99624.00;5002514;28;20050;-54
2023/07/25 10:25:36;;;;;;;2.97;0.70;;;;;;;23.51;46.45;99629.19;4999183;28;20638;-51
2023/07/25 10:28:04;;;;;;;7.85;1.55;;;;;;;23.25;45.81;99629.03;4999848;28;20599;-50
2023/07/25 10:30:39;;;;;;;3.88;1.50;;;;;;;22.94;45.87;99623.00;4996873;28;20053;-51
2023/07/25 10:33:07;;;;;;;3.88;0.98;;;;;;;22.60;46.35;99628.53;4998630;28;20046;-53
2023/07/25 10:35:53;;;;;;;19.27;2.22;;;;;;;22.27;46.58;99617.22;5001012;28;20049;-51
2023/07/25 10:38:42;;;;;;;5.30;0.90;;;;;;;22.18;46.79;99623.03;4999085;28;20045;-49
2023/07/25 10:46:26;;;;;;;8.65;2.38;;;;;;;22.46;46.58;99611.69;5081205;27;20397;-52
2023/07/25 10:48:55;;;;;;;2.10;1.88;;;;;;;22.56;46.16;99601.47;5040217;28;20044;-54
2023/07/25 10:51:23;;;;;;;1.83;1.73;;;;;;;22.67;46.50;99607.91;5041637;28;20045;-51
2023/07/25 10:54:12;;;;;;;1.75;1.55;;;;;;;22.60;45.20;99602.16;5058618;28;20137;-51
2023/07/25 10:56:39;;;;;;;;;;;;;;;22.63;46.49;99606.41;5043763;28;20042;-52
2023/07/25 10:59:10;;;;;;;1.92;1.55;;;;;;;22.89;45.87;99606.59;5038124;28;19925;-53
2023/07/25 11:04:24;;;;;;;0.70;0.40;;;;;;;23.00;44.78;99603.28;5066892;27;20385;-50
2023/07/25 11:06:54;;;;;;;1.25;0.47;;;;;;;22.90;44.40;99603.00;5032862;28;20055;-49
2023/07/25 11:09:22;;;;;;;1.45;0.40;;;;;;;22.88;43.99;99610.16;5056667;28;20074;-49
2023/07/25 11:11:51;;;;;;;0.45;0.22;;;;;;;22.78;43.90;99608.09;5023020;28;20048;-56
2023/07/25 11:14:20;;;;;;;0.93;0.80;;;;;;;22.64;44.64;99613.38;5050027;28;20049;-51
2023/07/25 11:16:49;;;;;;;2.08;0.60;;;;;;;22.45;44.20;99615.28;5044312;28;20494;-53
2023/07/25 11:19:16;;;;;;;;;;;;;;;22.03;44.33;99614.22;5037842;28;20076;-53
2023/07/25 11:21:45;;;;;;;0.98;0.40;;;;;;;22.01;44.80;99622.22;5039663;28;19935;-51
2023/07/25 11:24:12;;;;;;;0.90;0.40;;;;;;;21.93;45.40;99613.91;5036619;28;20052;-52
2023/07/25 11:26:39;;;;;;;0.88;0.30;;;;;;;21.87;44.58;99619.53;5034737;28;20045;-53
2023/07/25 11:29:07;;;;;;;1.10;0.60;;;;;;;21.89;44.77;99628.22;5038093;28;20045;-52
2023/07/25 11:31:36;;;;;;;1.30;1.02;;;;;;;21.92;45.59;99620.13;5031667;28;20053;-54
2023/07/25 11:34:12;;;;;;;1.23;0.68;;;;;;;21.94;45.51;99620.88;5033095;28;20456;-49
2023/07/25 11:36:39;;;;;;;3.58;0.43;;;;;;;21.95;46.11;99627.84;5037744;28;20045;-53
2023/07/25 11:39:08;;;;;;;2.60;0.68;;;;;;;21.94;46.35;99631.44;5038869;28;20053;-54
2023/07/25 11:41:36;;;;;;;1.17;0.60;;;;;;;21.89;46.62;99633.50;5030026;28;20049;-51
2023/07/25 11:44:09;;;;;;;2.72;0.68;;;;;;;21.89;45.86;99630.84;5038745;28;20056;-51